aviador You're here:

KLNK Decoded Metar

LINCOLN in NE, USA
Report Time2017-11-24 08:54:00
UTC Time2017-11-24 09:13:10
Flight Rules unknown UNKNOWN
Wind200° at 10 kt
W.Decomp.*RWY 18: 9.7 kt HW 2.4 kt RCW
RWY 17: 9.1 kt HW 4.1 kt RCW
RWY 14: 5.9 kt HW 8.1 kt RCW
W.Rank200° ranks 11
Current wind is below 200° avg. (10.1)
VisibilityN/A
Phenomena:N/A
Clouds:N/A
Expected CloudBase > 3,200 ft AGL from Temp-Dew spread
CeilingNone
Temp12°C (ISA -1)
Dew Point04°C (58% RH)
AAT7.1°C
QNH1004 hPa
Density Alt1,539 ft
Elevation1,194 ft
Report Wrong Elevation
Raw Report
KLNK 240854Z AUTO 20010KT CLR 12/04 A2965 RMK AO2 SLP035 T01220044
56029=

Extra information for KLNK:More info

Metar Taf Metar & Taf Last 4 Metars F.Rules Stats Wind Profile Meteogram Temp Stats Airport Information Weather charts Add Link Nearby VenuesMetar ALERT Operation Metar Decoded Social comments

AIRNAV info for KLNK